Time;durP1;ratioP1;P1;durP2;ratioP2;P2;SDS_P1;SDS_P2;PMS_P1;PMS_P2;Temp;Humidity;BMP_temperature;BMP_pressure;BME280_temperature;BME280_humidity;BME280_pressure;Samples;Min_cycle;Max_cycle;Signal;HPM_P1;HPM_P2
2022/12/18 00:00:49;;;;;;;19.07;12.60;;;;;;;12.43;100.00;100112.45;1743462;82;21213;-77
2022/12/18 00:03:54;;;;;;;20.90;12.40;;;;;;;12.47;100.00;100115.98;1736551;82;21771;-77
2022/12/18 00:07:00;;;;;;;17.82;11.75;;;;;;;12.43;100.00;100128.91;1742766;82;21148;-77
2022/12/18 00:10:06;;;;;;;17.77;12.10;;;;;;;12.53;100.00;100136.30;1738896;82;21200;-77
2022/12/18 00:13:13;;;;;;;18.77;12.65;;;;;;;12.37;100.00;100128.28;1741285;82;21747;-77
2022/12/18 00:16:27;;;;;;;19.62;12.93;;;;;;;12.31;100.00;100123.05;1705348;82;21156;-77
2022/12/18 00:19:32;;;;;;;20.90;13.72;;;;;;;12.32;100.00;100129.39;1744811;82;21554;-77
2022/12/18 00:22:38;;;;;;;17.05;12.50;;;;;;;12.21;100.00;100136.22;1706268;83;21701;-77
2022/12/18 00:25:32;;;;;;;18.42;12.98;;;;;;;12.23;100.00;100132.75;1729484;81;21728;-77
2022/12/18 00:28:38;;;;;;;20.43;12.58;;;;;;;12.13;100.00;100136.31;1723563;83;21172;-76
2022/12/18 00:31:44;;;;;;;20.37;14.10;;;;;;;12.07;100.00;100139.30;1728264;82;21237;-77
2022/12/18 00:34:50;;;;;;;21.62;13.13;;;;;;;12.04;100.00;100135.56;1732843;81;21162;-77
2022/12/18 00:37:55;;;;;;;21.17;12.68;;;;;;;11.99;100.00;100134.76;1729506;83;21683;-77
2022/12/18 00:41:01;;;;;;;18.00;12.43;;;;;;;11.98;100.00;100130.33;1725258;81;21720;-78
2022/12/18 00:44:08;;;;;;;17.92;11.85;;;;;;;11.93;100.00;100132.78;1724910;81;21144;-78
2022/12/18 00:47:16;;;;;;;19.50;13.08;;;;;;;11.89;100.00;100136.09;1724288;82;21133;-78
2022/12/18 00:50:22;;;;;;;20.30;13.48;;;;;;;11.80;100.00;100133.92;1723457;82;21211;-78
2022/12/18 00:53:27;;;;;;;17.37;11.95;;;;;;;11.81;100.00;100130.17;1729669;82;21143;-77
2022/12/18 00:56:34;;;;;;;19.52;12.10;;;;;;;11.88;100.00;100143.47;1730602;81;21771;-78
2022/12/18 00:59:40;;;;;;;17.95;10.80;;;;;;;11.69;100.00;100148.11;1716500;82;21581;-77
2022/12/18 01:02:46;;;;;;;17.30;10.13;;;;;;;11.74;100.00;100153.88;1730976;81;21169;-76
2022/12/18 01:05:52;;;;;;;15.98;10.88;;;;;;;11.71;100.00;100162.45;1741758;82;21721;-76
2022/12/18 01:08:58;;;;;;;16.55;11.00;;;;;;;11.55;100.00;100166.74;1716337;83;21156;-77
2022/12/18 01:12:03;;;;;;;15.03;10.13;;;;;;;11.45;100.00;100170.59;1726158;83;21236;-77
2022/12/18 01:15:09;;;;;;;18.02;11.53;;;;;;;11.38;100.00;100165.52;1713913;83;21171;-77
2022/12/18 01:18:14;;;;;;;18.87;11.12;;;;;;;11.33;100.00;100174.80;1744208;82;21195;-77
2022/12/18 01:21:23;;;;;;;14.00;9.50;;;;;;;11.31;100.00;100185.63;1707594;82;21197;-78
2022/12/18 01:24:30;;;;;;;15.68;9.98;;;;;;;11.27;100.00;100189.23;1721409;82;21160;-79
2022/12/18 01:27:36;;;;;;;15.63;9.60;;;;;;;11.14;100.00;100186.26;1739291;81;21163;-78
2022/12/18 01:30:41;;;;;;;14.05;8.30;;;;;;;11.04;100.00;100189.77;1720793;81;21211;-79
2022/12/18 01:33:48;;;;;;;12.53;7.03;;;;;;;11.01;99.76;100200.58;1723142;82;21628;-79
2022/12/18 01:36:53;;;;;;;9.90;6.75;;;;;;;10.88;98.70;100202.53;1719713;82;21200;-80
2022/12/18 01:40:00;;;;;;;10.30;7.15;;;;;;;10.94;98.09;100199.06;1719328;81;21171;-79
2022/12/18 01:43:05;;;;;;;12.75;6.50;;;;;;;10.81;97.99;100209.75;1729142;82;21168;-80
2022/12/18 01:46:11;;;;;;;11.30;6.50;;;;;;;10.71;98.19;100215.97;1721188;82;21208;-79
2022/12/18 01:49:19;;;;;;;9.03;6.47;;;;;;;10.62;97.94;100212.42;1721556;82;21716;-79
2022/12/18 01:52:24;;;;;;;6.17;4.92;;;;;;;10.62;96.66;100215.16;1724930;82;21195;-81
2022/12/18 01:55:32;;;;;;;6.85;5.22;;;;;;;10.43;94.40;100221.91;1722738;82;21134;-79
2022/12/18 01:58:49;;;;;;;6.60;4.85;;;;;;;10.29;94.17;100229.48;1735941;81;21160;-80
2022/12/18 02:01:56;;;;;;;5.80;4.17;;;;;;;10.10;94.46;100248.99;1743990;81;21168;-79
2022/12/18 02:05:03;;;;;;;2.83;2.55;;;;;;;9.78;92.69;100259.45;1740528;80;21176;-79
2022/12/18 02:08:28;;;;;;;5.35;2.90;;;;;;;9.50;92.33;100269.88;1723014;81;21612;-79
2022/12/18 02:12:02;;;;;;;2.72;2.52;;;;;;;9.24;92.03;100264.59;1751970;81;21168;-79
2022/12/18 02:15:24;;;;;;;3.00;2.60;;;;;;;9.02;91.74;100264.20;1729249;82;21722;-80
2022/12/18 02:22:35;;;;;;;4.15;2.98;;;;;;;8.75;92.28;100268.08;1767110;81;21749;-78
2022/12/18 02:26:09;;;;;;;3.67;2.77;;;;;;;8.63;92.78;100274.84;1732941;83;21198;-77
2022/12/18 02:29:22;;;;;;;10.10;3.12;;;;;;;8.63;93.25;100278.92;1731151;83;21190;-80
2022/12/18 02:32:35;;;;;;;4.35;2.80;;;;;;;8.53;93.96;100291.84;1718735;82;21193;-78
2022/12/18 02:35:41;;;;;;;3.25;2.30;;;;;;;8.43;94.53;100290.09;1716928;82;21761;-81
2022/12/18 02:38:49;;;;;;;2.50;2.30;;;;;;;8.24;91.69;100328.96;1736827;82;21691;-80
2022/12/18 02:41:54;;;;;;;2.42;2.22;;;;;;;8.08;90.84;100321.01;1705153;83;21227;-79
2022/12/18 02:45:03;;;;;;;2.50;2.10;;;;;;;8.00;90.67;100328.27;1698485;83;21198;-79
2022/12/18 02:48:08;;;;;;;1.87;1.77;;;;;;;7.65;90.76;100332.25;1709418;83;21193;-79
2022/12/18 02:51:24;;;;;;;1.92;1.72;;;;;;;7.55;91.37;100342.37;1688321;84;21492;-78
2022/12/18 02:54:51;;;;;;;2.08;1.87;;;;;;;7.48;91.41;100339.06;1700652;84;21200;-79
2022/12/18 02:58:30;;;;;;;5.40;1.77;;;;;;;7.35;92.08;100347.12;1718212;83;21152;-78
2022/12/18 03:01:46;;;;;;;3.17;2.33;;;;;;;7.30;92.03;100358.98;1714628;83;21771;-78
2022/12/18 03:05:07;;;;;;;2.50;2.30;;;;;;;7.29;92.37;100365.44;1690024;83;21236;-78
2022/12/18 03:08:32;;;;;;;2.72;2.30;;;;;;;7.22;90.91;100380.65;1730435;83;21195;-78
2022/12/18 03:15:28;;;;;;;3.52;3.05;;;;;;;6.85;91.62;100384.79;1706212;83;21223;-78
2022/12/18 03:18:44;;;;;;;5.70;3.52;;;;;;;6.86;91.36;100392.79;1704905;84;21183;-78
2022/12/18 03:21:57;;;;;;;3.30;3.00;;;;;;;6.81;91.05;100387.45;1699884;83;21212;-78
2022/12/18 03:25:07;;;;;;;4.17;2.62;;;;;;;6.64;91.63;100378.25;1699775;83;21172;-78
2022/12/18 03:28:16;;;;;;;3.87;3.47;;;;;;;6.40;92.20;100389.13;1683744;84;21794;-78
2022/12/18 03:31:23;;;;;;;3.35;3.05;;;;;;;6.52;92.41;100394.37;1712325;83;21247;-79
2022/12/18 03:34:37;;;;;;;3.35;2.72;;;;;;;6.45;92.13;100399.55;1736119;82;21520;-79
2022/12/18 03:37:44;;;;;;;3.47;2.90;;;;;;;6.22;92.74;100409.90;1734722;82;21266;-78
2022/12/18 03:41:12;;;;;;;3.02;2.72;;;;;;;6.17;93.14;100409.98;1731425;82;21204;-78
2022/12/18 03:44:40;;;;;;;3.50;3.20;;;;;;;6.08;93.32;100413.92;1698221;83;21176;-78
2022/12/18 03:48:13;;;;;;;4.20;3.50;;;;;;;5.95;93.03;100416.58;1726925;83;21261;-79
2022/12/18 03:51:32;;;;;;;3.80;3.37;;;;;;;6.03;92.31;100434.38;1703832;81;21226;-78
2022/12/18 03:54:38;;;;;;;3.87;3.35;;;;;;;5.93;92.96;100429.42;1704183;84;21184;-78
2022/12/18 03:57:43;;;;;;;4.97;4.17;;;;;;;5.90;93.54;100440.91;1717277;83;21215;-79
2022/12/18 04:00:52;;;;;;;4.17;3.77;;;;;;;5.93;93.75;100453.86;1695556;84;21222;-77
2022/12/18 04:03:58;;;;;;;5.20;4.50;;;;;;;5.87;94.07;100456.61;1716076;83;21306;-78
2022/12/18 04:07:03;;;;;;;4.20;3.77;;;;;;;5.84;94.56;100460.49;1724740;83;21179;-79
2022/12/18 04:10:10;;;;;;;4.37;3.98;;;;;;;5.81;95.25;100462.12;1726830;83;21175;-78
2022/12/18 04:13:16;;;;;;;4.15;3.72;;;;;;;5.82;95.19;100465.19;1734066;81;21196;-78
2022/12/18 04:16:22;;;;;;;3.95;3.55;;;;;;;5.92;94.55;100463.01;1727562;82;21147;-79
2022/12/18 04:19:30;;;;;;;4.67;3.50;;;;;;;5.88;94.11;100470.07;1697828;83;21192;-79
2022/12/18 04:22:36;;;;;;;4.33;3.85;;;;;;;5.84;93.97;100472.70;1679805;85;21217;-79
2022/12/18 04:25:42;;;;;;;4.12;3.72;;;;;;;5.68;94.42;100485.10;1720626;83;21160;-79
2022/12/18 04:28:51;;;;;;;4.60;4.03;;;;;;;5.73;94.55;100489.10;1688177;85;21203;-78
2022/12/18 04:31:56;;;;;;;4.35;3.95;;;;;;;5.69;94.77;100490.38;1716773;83;21197;-78
2022/12/18 04:35:03;;;;;;;5.35;4.62;;;;;;;5.61;95.06;100495.67;1707052;83;21179;-78
2022/12/18 04:38:09;;;;;;;4.10;3.70;;;;;;;5.64;95.10;100492.16;1716628;83;21153;-77
2022/12/18 04:41:17;;;;;;;4.85;4.00;;;;;;;5.70;95.26;100504.33;1695046;83;21200;-77
2022/12/18 04:44:23;;;;;;;5.20;4.28;;;;;;;5.72;95.13;100502.83;1707880;83;21746;-78
2022/12/18 04:47:30;;;;;;;7.10;5.80;;;;;;;5.79;94.69;100508.92;1706460;83;21180;-79
2022/12/18 04:50:30;;;;;;;25.75;15.55;;;;;;;5.77;94.69;100523.11;1716561;83;21602;-79
2022/12/18 04:53:22;;;;;;;29.32;17.85;;;;;;;5.82;94.34;100528.98;1715412;83;21184;-79
2022/12/18 04:56:28;;;;;;;22.73;15.68;;;;;;;5.78;94.22;100532.97;1712541;83;21155;-79
2022/12/18 04:59:34;;;;;;;24.32;16.50;;;;;;;5.79;93.54;100546.06;1711286;83;21822;-79
2022/12/18 05:02:40;;;;;;;23.35;14.70;;;;;;;5.71;93.08;100544.55;1703782;83;21753;-80
2022/12/18 05:05:47;;;;;;;23.47;13.45;;;;;;;5.73;92.85;100543.39;1707769;83;21143;-80
2022/12/18 05:08:53;;;;;;;25.80;13.50;;;;;;;5.61;92.99;100554.02;1706375;83;21196;-80
2022/12/18 05:11:59;;;;;;;22.75;14.45;;;;;;;5.55;93.01;100560.86;1706672;83;21726;-79
2022/12/18 05:15:04;;;;;;;21.52;13.08;;;;;;;5.51;93.24;100566.20;1698530;83;21770;-79
2022/12/18 05:18:10;;;;;;;21.02;14.13;;;;;;;5.47;93.18;100565.25;1711914;83;21180;-78
2022/12/18 05:21:16;;;;;;;18.00;12.78;;;;;;;5.55;92.54;100564.05;1710035;83;21227;-80
2022/12/18 05:27:34;;;;;;;19.62;12.80;;;;;;;5.84;89.98;100567.72;1677415;84;21227;-78
2022/12/18 05:30:42;;;;;;;16.60;11.25;;;;;;;5.47;91.36;100586.96;1673962;84;21196;-78
2022/12/18 05:33:47;;;;;;;17.12;10.65;;;;;;;5.28;91.00;100599.94;1711250;83;21770;-78
2022/12/18 05:36:52;;;;;;;18.77;11.30;;;;;;;5.28;90.78;100613.50;1701804;84;21167;-78
2022/12/18 05:39:57;;;;;;;13.20;9.08;;;;;;;5.12;90.47;100617.53;1705664;84;21223;-78
2022/12/18 05:43:02;;;;;;;13.62;9.75;;;;;;;5.19;89.81;100636.86;1720529;83;21196;-78
2022/12/18 05:46:13;;;;;;;14.43;10.53;;;;;;;5.32;88.24;100638.87;1726446;83;21753;-78
2022/12/18 05:49:12;;;;;;;13.43;9.45;;;;;;;5.13;88.34;100638.76;1715694;83;21742;-80
2022/12/18 05:52:18;;;;;;;14.70;9.28;;;;;;;5.04;88.59;100647.69;1718913;83;21757;-79
2022/12/18 05:55:23;;;;;;;17.50;9.40;;;;;;;5.06;88.02;100648.40;1685373;85;21232;-79
2022/12/18 05:58:23;;;;;;;12.63;9.13;;;;;;;5.11;87.83;100655.14;1704798;84;21235;-79
2022/12/18 06:01:23;;;;;;;13.25;8.65;;;;;;;5.24;87.12;100675.78;1703341;84;21196;-79
2022/12/18 06:04:29;;;;;;;14.80;9.15;;;;;;;5.16;86.87;100684.57;1702598;84;21195;-79
2022/12/18 06:07:35;;;;;;;13.00;9.20;;;;;;;5.16;86.85;100689.99;1706073;84;21204;-78
2022/12/18 06:10:40;;;;;;;11.57;8.98;;;;;;;5.19;86.79;100691.09;1705403;84;21292;-79
2022/12/18 06:13:46;;;;;;;8.75;6.85;;;;;;;5.17;87.46;100694.92;1704520;84;21221;-79
2022/12/18 06:16:53;;;;;;;11.63;8.35;;;;;;;5.22;87.39;100698.98;1706013;84;21193;-79
2022/12/18 06:19:59;;;;;;;11.15;7.67;;;;;;;5.12;87.58;100698.02;1703524;84;21240;-79
2022/12/18 06:23:04;;;;;;;8.30;6.05;;;;;;;5.08;87.74;100696.56;1705099;84;21854;-79
2022/12/18 06:26:17;;;;;;;7.42;5.53;;;;;;;4.97;88.21;100710.19;1704327;84;22552;-79
2022/12/18 06:29:25;;;;;;;7.28;5.15;;;;;;;4.93;88.46;100717.72;1758960;81;21168;-79
2022/12/18 06:32:31;;;;;;;5.72;4.50;;;;;;;4.86;89.32;100718.74;1758670;80;21206;-79
2022/12/18 06:35:35;;;;;;;9.58;4.05;;;;;;;4.80;89.79;100708.93;1758500;81;21194;-79
2022/12/18 06:38:42;;;;;;;5.03;3.83;;;;;;;4.87;89.52;100723.66;1758438;81;21192;-79
2022/12/18 06:41:47;;;;;;;4.90;3.50;;;;;;;4.76;89.55;100721.87;1757570;81;21813;-79
2022/12/18 06:44:53;;;;;;;3.47;3.12;;;;;;;4.79;90.17;100720.23;1757008;81;21195;-79
2022/12/18 06:47:59;;;;;;;6.97;3.42;;;;;;;4.68;90.82;100716.22;1758368;81;21216;-79
2022/12/18 06:51:05;;;;;;;4.60;3.58;;;;;;;4.78;91.07;100721.23;1758568;81;21187;-79
2022/12/18 06:54:11;;;;;;;3.00;2.70;;;;;;;4.85;91.34;100719.74;1757401;81;21734;-79
2022/12/18 06:57:18;;;;;;;3.42;3.05;;;;;;;4.84;91.21;100713.07;1757260;81;21219;-79
2022/12/18 07:00:24;;;;;;;3.05;2.58;;;;;;;4.80;91.18;100729.26;1758369;81;22482;-79
2022/12/18 07:03:31;;;;;;;4.25;3.17;;;;;;;4.82;90.97;100732.19;1757874;81;21892;-79
2022/12/18 07:06:37;;;;;;;2.65;2.02;;;;;;;4.78;90.86;100746.98;1758414;81;21191;-79
2022/12/18 07:09:43;;;;;;;2.77;2.02;;;;;;;4.89;89.61;100750.14;1757023;81;21242;-79
2022/12/18 07:12:49;;;;;;;5.03;1.77;;;;;;;4.83;89.21;100746.09;1757208;81;21215;-79
2022/12/18 07:15:55;;;;;;;2.15;1.98;;;;;;;4.94;88.60;100751.99;1758538;81;21239;-79
2022/12/18 07:19:02;;;;;;;1.80;1.70;;;;;;;4.90;88.04;100759.16;1758687;81;21183;-79
2022/12/18 07:22:08;;;;;;;1.65;1.55;;;;;;;4.87;88.07;100763.83;1739674;81;21192;-79
2022/12/18 07:25:16;;;;;;;1.80;1.70;;;;;;;4.85;87.41;100775.31;1758451;81;21195;-79
2022/12/18 07:28:24;;;;;;;1.85;1.75;;;;;;;5.04;87.10;100780.55;1756547;81;21267;-79
2022/12/18 07:31:29;;;;;;;2.20;2.00;;;;;;;5.08;87.52;100781.98;1760165;80;21333;-79
2022/12/18 07:34:35;;;;;;;2.60;2.22;;;;;;;5.02;87.87;100785.22;1759805;81;21191;-79
2022/12/18 07:37:42;;;;;;;2.35;2.00;;;;;;;4.94;87.87;100789.95;1760682;81;21706;-79
2022/12/18 07:40:48;;;;;;;2.35;2.15;;;;;;;4.74;88.26;100792.94;1760635;81;21192;-78
2022/12/18 07:43:54;;;;;;;2.98;2.50;;;;;;;4.75;88.32;100803.28;1760196;81;21274;-79
2022/12/18 07:47:00;;;;;;;2.20;2.00;;;;;;;4.74;87.46;100814.62;1760614;81;21291;-79
2022/12/18 07:50:10;;;;;;;3.08;2.77;;;;;;;4.88;85.92;100812.98;1760777;81;21714;-79
2022/12/18 07:53:15;;;;;;;2.62;2.42;;;;;;;4.73;85.36;100817.47;1760790;81;21199;-79
2022/12/18 07:56:21;;;;;;;2.90;2.60;;;;;;;4.73;84.68;100818.32;1760541;81;21199;-79
2022/12/18 07:59:29;;;;;;;2.70;2.50;;;;;;;4.70;84.76;100822.63;1760564;81;21361;-78
2022/12/18 08:02:36;;;;;;;2.62;2.30;;;;;;;4.74;84.42;100830.02;1759193;81;21768;-78
2022/12/18 08:05:43;;;;;;;3.00;2.80;;;;;;;4.78;84.31;100824.22;1738636;81;21215;-78
2022/12/18 08:08:49;;;;;;;3.08;2.72;;;;;;;4.70;84.93;100815.86;1760280;81;21237;-78
2022/12/18 08:11:55;;;;;;;4.58;3.70;;;;;;;4.73;85.06;100836.44;1760445;81;21211;-78
2022/12/18 08:15:01;;;;;;;3.80;3.00;;;;;;;4.86;84.55;100832.59;1759752;81;21247;-79
2022/12/18 08:18:07;;;;;;;5.00;3.80;;;;;;;4.82;84.82;100835.18;1760780;81;21176;-78
2022/12/18 08:21:27;;;;;;;6.60;5.05;;;;;;;4.71;85.67;100837.92;1760841;81;21191;-78
2022/12/18 08:24:33;;;;;;;4.92;3.75;;;;;;;4.69;85.86;100838.53;1760267;81;21306;-78
2022/12/18 08:27:40;;;;;;;4.60;3.58;;;;;;;4.82;85.98;100837.89;1759669;81;21338;-78
2022/12/18 08:30:47;;;;;;;7.22;3.17;;;;;;;4.84;85.73;100840.47;1729020;81;21229;-78
2022/12/18 08:33:52;;;;;;;3.15;2.85;;;;;;;4.76;85.81;100835.70;1726883;83;21288;-78
2022/12/18 08:36:58;;;;;;;6.00;2.80;;;;;;;4.78;86.18;100835.06;1726468;83;21787;-78
2022/12/18 08:40:03;;;;;;;4.83;3.12;;;;;;;4.66;86.78;100840.16;1726541;83;21224;-79
2022/12/18 08:46:34;;;;;;;5.33;3.85;;;;;;;4.91;86.37;100847.12;1726656;83;21843;-78
2022/12/18 08:49:41;;;;;;;4.53;3.52;;;;;;;4.88;86.10;100846.00;1726568;83;21260;-78
2022/12/18 08:52:47;;;;;;;4.78;3.47;;;;;;;4.72;85.92;100842.35;1726721;83;21557;-78
2022/12/18 08:55:54;;;;;;;4.80;3.85;;;;;;;4.75;85.33;100835.80;1725555;83;21217;-78
2022/12/18 08:59:02;;;;;;;6.12;5.15;;;;;;;4.69;84.96;100842.59;1726319;83;21851;-79
2022/12/18 09:02:10;;;;;;;4.95;3.80;;;;;;;4.48;84.97;100855.20;1726991;83;21516;-78
2022/12/18 09:05:16;;;;;;;5.37;3.55;;;;;;;4.33;85.41;100855.45;1726316;83;21237;-78
2022/12/18 09:08:21;;;;;;;4.65;3.87;;;;;;;4.32;85.69;100854.19;1726803;83;22723;-79
2022/12/18 09:11:33;;;;;;;4.15;3.20;;;;;;;4.25;85.49;100859.25;1726900;83;21197;-78
2022/12/18 09:14:39;;;;;;;5.80;4.33;;;;;;;4.29;84.89;100856.67;1726439;83;21261;-78
2022/12/18 09:17:45;;;;;;;6.15;4.78;;;;;;;4.29;85.00;100844.48;1725485;83;21771;-78
2022/12/18 09:20:52;;;;;;;6.70;5.00;;;;;;;4.45;84.87;100854.94;1726751;83;21747;-79
2022/12/18 09:24:01;;;;;;;9.93;6.75;;;;;;;4.47;84.97;100856.16;1726739;83;21752;-78
2022/12/18 09:27:07;;;;;;;7.90;6.20;;;;;;;4.42;85.10;100861.08;1726953;83;21181;-78
2022/12/18 09:30:14;;;;;;;9.65;6.83;;;;;;;4.16;85.66;100851.86;1726033;82;21233;-78
2022/12/18 09:33:19;;;;;;;12.45;7.53;;;;;;;4.04;85.53;100854.17;1726940;83;21205;-79
2022/12/18 09:36:26;;;;;;;10.00;6.92;;;;;;;3.90;85.55;100863.38;1725795;83;21845;-78
2022/12/18 09:39:32;;;;;;;13.32;7.65;;;;;;;3.84;86.25;100865.22;1725180;83;21216;-78
2022/12/18 09:42:39;;;;;;;8.98;6.30;;;;;;;3.81;85.84;100870.85;1725327;83;21182;-80
2022/12/18 09:45:49;;;;;;;8.63;6.35;;;;;;;3.78;85.84;100862.50;1712350;83;21239;-79
2022/12/18 09:48:57;;;;;;;9.10;6.75;;;;;;;3.77;85.79;100873.45;1723681;83;21242;-79
2022/12/18 09:52:18;;;;;;;10.15;7.53;;;;;;;3.72;85.44;100873.81;1714767;83;21176;-80
2022/12/18 09:55:43;;;;;;;12.23;7.60;;;;;;;3.65;85.73;100874.39;1722279;82;21196;-78
2022/12/18 09:58:56;;;;;;;13.78;9.18;;;;;;;3.62;85.62;100882.23;1711912;82;21204;-77
2022/12/18 10:02:02;;;;;;;12.85;8.35;;;;;;;3.61;84.24;100877.81;1706192;83;21323;-80
2022/12/18 10:05:12;;;;;;;10.95;7.60;;;;;;;3.52;83.61;100882.58;1706949;82;21201;-78
2022/12/18 10:08:42;;;;;;;11.18;7.62;;;;;;;3.36;83.86;100889.66;1700648;82;21191;-78
2022/12/18 10:12:12;;;;;;;10.90;7.03;;;;;;;3.37;83.62;100899.97;1700610;83;21207;-78
2022/12/18 10:15:29;;;;;;;12.45;8.05;;;;;;;3.36;83.38;100896.91;1712508;82;21258;-78
2022/12/18 10:18:47;;;;;;;16.35;10.65;;;;;;;3.38;82.61;100903.91;1711410;83;21208;-78
2022/12/18 10:22:07;;;;;;;19.15;11.05;;;;;;;3.32;82.73;100909.29;1707626;84;21246;-77
2022/12/18 10:25:24;;;;;;;16.95;10.35;;;;;;;3.29;82.57;100909.55;1708842;83;21224;-77
2022/12/18 10:28:29;;;;;;;14.05;9.68;;;;;;;3.14;82.58;100913.86;1713970;83;21873;-78
2022/12/18 10:31:35;;;;;;;15.03;9.43;;;;;;;3.05;82.33;100922.16;1718441;83;21223;-78
2022/12/18 10:34:41;;;;;;;15.53;9.33;;;;;;;2.97;82.05;100923.23;1726839;83;21208;-78
2022/12/18 10:37:53;;;;;;;14.45;10.08;;;;;;;2.95;81.66;100927.87;1725576;83;21212;-77
2022/12/18 10:41:11;;;;;;;15.80;10.65;;;;;;;2.83;82.48;100936.89;1722203;81;21219;-78
2022/12/18 10:44:29;;;;;;;15.70;9.20;;;;;;;2.78;82.43;100928.63;1726901;83;21212;-77
2022/12/18 10:47:34;;;;;;;16.15;10.50;;;;;;;2.77;81.43;100920.12;1726546;83;21769;-78
2022/12/18 10:50:44;;;;;;;13.72;9.20;;;;;;;2.85;81.11;100929.52;1726903;83;21212;-78
2022/12/18 10:53:56;;;;;;;17.07;11.10;;;;;;;2.95;80.76;100919.76;1732554;82;21187;-77
2022/12/18 10:57:05;;;;;;;19.10;12.03;;;;;;;3.15;79.54;100924.55;1732248;81;21301;-78
2022/12/18 11:00:35;;;;;;;18.12;12.05;;;;;;;2.76;80.37;100935.95;1749503;81;21231;-77
2022/12/18 11:03:50;;;;;;;19.90;13.30;;;;;;;2.81;81.04;100933.78;1744192;81;22535;-80
2022/12/18 11:07:15;;;;;;;18.30;13.10;;;;;;;2.92;80.86;100944.33;1716867;83;21232;-80
2022/12/18 11:10:24;;;;;;;20.62;12.73;;;;;;;2.75;81.06;100940.99;1751532;81;21225;-78
2022/12/18 11:13:35;;;;;;;19.50;12.13;;;;;;;2.77;81.50;100947.13;1723865;83;21271;-78
2022/12/18 11:16:55;;;;;;;17.20;11.83;;;;;;;2.74;81.11;100944.67;1744673;81;21203;-78
2022/12/18 11:20:04;;;;;;;19.82;11.78;;;;;;;2.86;80.70;100942.05;1749748;81;21783;-78
2022/12/18 11:23:19;;;;;;;20.12;11.73;;;;;;;2.86;80.70;100942.05;1715034;81;21179;-79
2022/12/18 11:26:24;;;;;;;20.75;12.70;;;;;;;2.80;80.55;100944.72;1748406;81;21420;-78
2022/12/18 11:29:39;;;;;;;19.87;12.88;;;;;;;2.75;80.51;100948.23;1707142;83;21235;-78
2022/12/18 11:32:47;;;;;;;22.50;12.18;;;;;;;2.78;80.85;100953.43;1747134;80;21192;-78
2022/12/18 11:36:06;;;;;;;20.25;13.75;;;;;;;2.76;80.71;100957.57;1749494;80;21314;-78
2022/12/18 11:39:28;;;;;;;25.00;14.98;;;;;;;2.80;80.51;100964.98;1752351;81;21191;-78
2022/12/18 11:42:45;;;;;;;20.95;12.58;;;;;;;2.76;80.29;100968.87;1744297;80;21176;-78
2022/12/18 11:46:11;;;;;;;16.12;11.93;;;;;;;2.68;80.36;100968.09;1751063;81;21238;-78
2022/12/18 11:49:23;;;;;;;19.73;11.00;;;;;;;2.58;80.26;100972.88;1746289;81;22527;-80
2022/12/18 11:52:42;;;;;;;14.65;9.95;;;;;;;2.55;80.78;100959.13;1748059;81;21246;-79
2022/12/18 11:55:55;;;;;;;15.78;10.58;;;;;;;2.56;79.39;100967.11;1738111;82;21184;-79
2022/12/18 11:59:13;;;;;;;15.60;9.93;;;;;;;2.52;78.50;100965.59;1755367;81;21745;-79
2022/12/18 12:02:25;;;;;;;15.63;10.75;;;;;;;2.46;78.66;100975.98;1757742;81;21566;-79
2022/12/18 12:06:01;;;;;;;18.98;12.28;;;;;;;2.52;78.87;100976.40;1757573;80;21500;-79
2022/12/18 12:09:32;;;;;;;18.00;11.33;;;;;;;2.51;79.02;100974.67;1746594;81;21183;-78
2022/12/18 12:13:11;;;;;;;21.45;12.43;;;;;;;2.70;78.62;100978.28;1754992;81;21188;-79
2022/12/18 12:16:32;;;;;;;16.27;10.40;;;;;;;2.77;78.83;100984.95;1759312;81;21246;-78
2022/12/18 12:19:51;;;;;;;16.48;10.98;;;;;;;2.70;78.84;100985.03;1711435;81;21168;-78
2022/12/18 12:23:04;;;;;;;16.90;11.03;;;;;;;2.79;78.29;100989.78;1750169;81;21207;-78
2022/12/18 12:26:36;;;;;;;16.90;10.18;;;;;;;2.75;78.24;101000.92;1752008;80;21762;-78
2022/12/18 12:30:01;;;;;;;15.58;10.60;;;;;;;2.78;77.85;101006.98;1754415;81;21206;-78
2022/12/18 12:33:37;;;;;;;16.65;9.98;;;;;;;2.73;76.81;101014.55;1754459;80;21862;-78
2022/12/18 12:37:20;;;;;;;15.38;9.18;;;;;;;2.75;76.61;101019.34;1749285;80;21766;-81
2022/12/18 12:40:28;;;;;;;16.50;10.60;;;;;;;2.81;76.76;101020.73;1762374;81;21873;-79
2022/12/18 12:43:52;;;;;;;15.18;9.70;;;;;;;2.76;76.50;101031.01;1757794;80;21163;-78
2022/12/18 12:46:58;;;;;;;12.70;9.03;;;;;;;2.65;76.98;101033.13;1767779;80;21167;-78
2022/12/18 12:49:57;;;;;;;15.20;10.30;;;;;;;2.71;76.15;101034.03;1769752;80;21211;-78
2022/12/18 12:53:05;;;;;;;17.82;10.75;;;;;;;2.63;76.27;101034.19;1765688;80;21177;-78
2022/12/18 12:56:11;;;;;;;19.67;11.25;;;;;;;2.61;76.37;101041.06;1762828;80;21250;-80
2022/12/18 12:59:38;;;;;;;17.92;9.93;;;;;;;2.60;75.61;101045.23;1759506;80;21250;-78
2022/12/18 13:03:09;;;;;;;19.35;11.35;;;;;;;2.61;75.65;101049.16;1739682;81;21190;-79
2022/12/18 13:06:20;;;;;;;21.27;11.38;;;;;;;2.52;75.84;101051.16;1738028;80;21175;-78
2022/12/18 13:09:24;;;;;;;;;;;;;;;2.55;75.15;101057.22;1750551;82;21198;-78
2022/12/18 13:15:51;;;;;;;16.80;10.13;;;;;;;2.77;74.78;101057.91;1744582;80;21215;-78
2022/12/18 13:19:02;;;;;;;18.32;9.68;;;;;;;2.62;74.30;101056.78;1748551;80;21176;-78
2022/12/18 13:22:08;;;;;;;15.55;9.80;;;;;;;2.63;74.53;101059.36;1701603;82;21207;-78
2022/12/18 13:25:43;;;;;;;18.45;11.38;;;;;;;2.47;75.20;101072.22;1756131;80;21172;-78
2022/12/18 13:28:54;;;;;;;18.55;10.60;;;;;;;2.46;75.45;101077.24;1747853;80;21185;-77
2022/12/18 13:32:05;;;;;;;16.17;11.00;;;;;;;2.38;75.71;101075.55;1743615;80;21241;-78
2022/12/18 13:35:33;;;;;;;15.05;9.65;;;;;;;2.38;75.78;101083.16;1700745;82;21261;-79
2022/12/18 13:38:43;;;;;;;13.30;8.65;;;;;;;2.44;75.90;101089.97;1655418;83;21186;-78
2022/12/18 13:41:49;;;;;;;14.47;10.55;;;;;;;2.41;74.72;101092.41;1717409;83;21167;-78
2022/12/18 13:44:54;;;;;;;17.27;10.78;;;;;;;2.33;74.06;101099.30;1685089;84;21188;-78
2022/12/18 13:47:59;;;;;;;15.72;10.18;;;;;;;2.28;74.25;101083.41;1717425;83;21998;-78
2022/12/18 13:51:17;;;;;;;15.23;9.65;;;;;;;2.33;73.41;101100.16;1693862;84;21188;-78
2022/12/18 13:54:28;;;;;;;17.90;11.05;;;;;;;2.35;73.58;101102.75;1687047;84;21335;-79
2022/12/18 13:57:43;;;;;;;16.30;9.63;;;;;;;2.23;73.91;101105.31;1703161;83;21183;-78
2022/12/18 14:00:51;;;;;;;15.40;9.95;;;;;;;2.20;74.35;101106.00;1683359;84;21844;-78
2022/12/18 14:03:58;;;;;;;17.77;10.58;;;;;;;2.16;74.37;101103.12;1667583;85;21175;-78
2022/12/18 14:07:12;;;;;;;17.17;10.75;;;;;;;2.11;74.62;101115.58;1726946;81;21372;-77
2022/12/18 14:10:20;;;;;;;16.80;10.75;;;;;;;2.16;75.02;101124.23;1722553;83;21197;-78
2022/12/18 14:13:47;;;;;;;23.90;16.85;;;;;;;2.15;75.28;101125.69;1722551;82;21215;-78
2022/12/18 14:16:53;;;;;;;33.90;20.55;;;;;;;2.11;75.89;101138.52;1715484;81;21793;-78
2022/12/18 14:20:00;;;;;;;35.63;21.60;;;;;;;1.94;76.95;101140.14;1690589;84;21215;-80
2022/12/18 14:23:06;;;;;;;28.27;18.75;;;;;;;1.99;75.99;101150.14;1724558;81;21321;-80
2022/12/18 14:26:33;;;;;;;30.55;19.20;;;;;;;2.05;75.37;101152.42;1695502;84;21251;-80
2022/12/18 14:29:38;;;;;;;30.35;18.30;;;;;;;1.87;74.41;101156.33;1694519;84;21254;-80
2022/12/18 14:32:45;;;;;;;27.13;17.65;;;;;;;1.78;74.72;101168.09;1694235;84;21256;-80
2022/12/18 14:36:09;;;;;;;30.57;19.15;;;;;;;1.73;74.51;101168.02;1727546;82;21236;-77
2022/12/18 14:39:16;;;;;;;33.02;18.92;;;;;;;1.70;74.25;101180.37;1674156;85;21242;-78
2022/12/18 14:42:23;;;;;;;28.90;19.60;;;;;;;1.62;74.53;101176.80;1674816;85;21215;-78
2022/12/18 14:45:51;;;;;;;34.33;21.02;;;;;;;1.70;74.55;101183.92;1707985;83;21201;-78
2022/12/18 14:48:56;;;;;;;31.15;20.00;;;;;;;1.70;74.70;101199.25;1730295;83;21237;-78
2022/12/18 14:52:06;;;;;;;33.65;20.75;;;;;;;1.54;74.69;101197.98;1738440;82;21213;-78
2022/12/18 14:55:12;;;;;;;30.50;21.13;;;;;;;1.55;74.42;101199.71;1725817;83;21209;-78
2022/12/18 14:58:19;;;;;;;32.38;21.20;;;;;;;1.54;72.33;101200.68;1676531;85;21282;-78
2022/12/18 15:01:38;;;;;;;31.20;19.70;;;;;;;1.32;73.40;101197.59;1678311;85;21249;-79